createdAt,value
2018-11-14T00:01:48.764Z,28.70
2018-11-14T00:04:17.761Z,18.73
2018-11-14T00:06:46.308Z,21.33
2018-11-14T00:09:15.529Z,19.53
2018-11-14T00:11:44.076Z,16.97
2018-11-14T00:14:15.117Z,22.87
2018-11-14T00:16:43.941Z,20.47
2018-11-14T00:19:12.360Z,22.57
2018-11-14T00:21:41.023Z,18.37
2018-11-14T00:24:09.380Z,17.50
2018-11-14T00:26:37.869Z,24.53
2018-11-14T00:29:06.556Z,21.63
2018-11-14T00:31:34.935Z,14.13
2018-11-14T00:34:03.441Z,16.10
2018-11-14T00:36:31.789Z,18.50
2018-11-14T00:39:00.664Z,18.63
2018-11-14T00:41:28.981Z,13.73
2018-11-14T00:43:57.301Z,15.40
2018-11-14T00:46:25.787Z,20.40
2018-11-14T00:48:54.185Z,15.27
2018-11-14T00:51:23.032Z,19.33
2018-11-14T00:53:51.439Z,16.80
2018-11-14T00:56:20.038Z,14.73
2018-11-14T00:58:48.355Z,13.13
2018-11-14T01:01:16.775Z,16.13
2018-11-14T01:03:45.106Z,19.17
2018-11-14T01:06:13.554Z,15.30
2018-11-14T01:08:42.210Z,19.27
2018-11-14T01:11:10.633Z,12.70
2018-11-14T01:13:39.214Z,15.17
2018-11-14T01:16:07.551Z,14.13
2018-11-14T01:18:36.071Z,16.50
2018-11-14T01:21:05.127Z,15.57
2018-11-14T01:23:34.029Z,16.33
2018-11-14T01:26:02.421Z,15.67
2018-11-14T01:28:30.768Z,13.07
2018-11-14T01:30:59.107Z,12.57
2018-11-14T01:33:28.855Z,13.73
2018-11-14T01:35:57.692Z,13.63
2018-11-14T01:38:25.905Z,16.83
2018-11-14T01:40:55.439Z,11.93
2018-11-14T01:43:23.840Z,15.87
2018-11-14T01:45:52.196Z,15.80
2018-11-14T01:48:23.560Z,15.77
2018-11-14T01:50:51.905Z,10.93
2018-11-14T01:53:20.465Z,12.83
2018-11-14T01:55:48.837Z,14.93
2018-11-14T01:58:17.204Z,14.13
2018-11-14T02:00:45.602Z,14.30
2018-11-14T02:03:14.777Z,16.03
2018-11-14T02:05:43.092Z,9.37
2018-11-14T02:08:11.490Z,15.13
2018-11-14T02:10:39.897Z,13.17
2018-11-14T02:13:08.463Z,14.80
2018-11-14T02:15:36.845Z,12.67
2018-11-14T02:18:05.721Z,11.53
2018-11-14T02:20:34.819Z,14.27
2018-11-14T02:23:03.246Z,15.23
2018-11-14T02:25:31.688Z,11.37
2018-11-14T02:28:00.255Z,14.27
2018-11-14T02:30:28.683Z,14.30
2018-11-14T02:32:56.993Z,15.83
2018-11-14T02:35:25.608Z,12.77
2018-11-14T02:37:54.040Z,17.03
2018-11-14T02:40:23.221Z,18.10
2018-11-14T02:42:51.690Z,12.97
2018-11-14T02:45:20.030Z,19.17
2018-11-14T02:47:48.641Z,16.90
2018-11-14T02:50:17.832Z,16.37
2018-11-14T02:52:46.267Z,18.20
2018-11-14T02:55:15.753Z,12.73
2018-11-14T02:57:44.736Z,13.03
2018-11-14T03:00:15.536Z,18.87
2018-11-14T03:02:44.242Z,18.93
2018-11-14T03:05:12.579Z,18.43
2018-11-14T03:07:41.231Z,14.90
2018-11-14T03:10:12.890Z,15.53
2018-11-14T03:12:41.688Z,17.47
2018-11-14T03:15:12.348Z,17.50
2018-11-14T03:17:41.137Z,12.90
2018-11-14T03:20:11.837Z,18.43
2018-11-14T03:22:40.297Z,16.47
2018-11-14T03:25:10.571Z,15.60
2018-11-14T03:27:39.328Z,13.87
2018-11-14T03:30:10.177Z,12.17
2018-11-14T03:32:39.319Z,15.93
2018-11-14T03:35:08.675Z,15.10
2018-11-14T03:37:38.488Z,15.37
2018-11-14T03:40:09.869Z,16.40
2018-11-14T03:42:38.773Z,17.47
2018-11-14T03:45:08.769Z,16.27
2018-11-14T03:47:37.773Z,16.20
2018-11-14T03:50:07.108Z,17.90
2018-11-14T03:52:36.422Z,14.80
2018-11-14T03:55:05.357Z,13.43
2018-11-14T03:57:34.353Z,16.20
2018-11-14T04:00:03.115Z,16.17
2018-11-14T04:02:31.800Z,15.93
2018-11-14T04:05:00.229Z,18.90
2018-11-14T04:07:28.617Z,14.40
2018-11-14T04:09:57.576Z,16.00
2018-11-14T04:12:26.163Z,16.40
2018-11-14T04:14:54.574Z,16.97
2018-11-14T04:17:22.906Z,15.17
2018-11-14T04:19:51.423Z,14.20
2018-11-14T04:22:20.345Z,17.83
2018-11-14T04:24:49.619Z,14.17
2018-11-14T04:29:57.944Z,18.10
2018-11-14T04:32:26.645Z,20.47
2018-11-14T04:34:55.095Z,14.00
2018-11-14T04:37:23.820Z,16.70
2018-11-14T04:39:54.858Z,16.00
2018-11-14T04:42:23.965Z,15.83
2018-11-14T04:44:53.101Z,15.83
2018-11-14T04:47:21.471Z,15.50
2018-11-14T04:49:50.331Z,16.30
2018-11-14T04:52:19.200Z,15.60
2018-11-14T04:54:47.807Z,21.13
2018-11-14T04:57:17.475Z,17.33
2018-11-14T04:59:48.091Z,15.80
2018-11-14T05:02:16.926Z,19.10
2018-11-14T05:04:45.421Z,17.93
2018-11-14T05:07:15.065Z,16.63
2018-11-14T05:09:43.404Z,19.57
2018-11-14T05:12:12.164Z,16.77
2018-11-14T05:14:40.837Z,18.63
2018-11-14T05:17:12.771Z,16.60
2018-11-14T05:19:43.553Z,14.47
2018-11-14T05:22:13.452Z,21.00
2018-11-14T05:24:41.905Z,15.20
2018-11-14T05:27:10.232Z,17.47
2018-11-14T05:29:40.545Z,16.93
2018-11-14T05:32:08.945Z,15.87
2018-11-14T05:34:37.622Z,17.27
2018-11-14T05:37:06.082Z,18.70
2018-11-14T05:39:38.412Z,23.37
2018-11-14T05:42:07.724Z,20.70
2018-11-14T05:44:36.603Z,23.70
2018-11-14T05:49:41.365Z,15.87
2018-11-14T05:52:10.097Z,18.47
2018-11-14T05:54:39.762Z,16.80
2018-11-14T05:57:08.705Z,20.10
2018-11-14T05:59:37.249Z,18.17
2018-11-14T06:02:05.821Z,16.90
2018-11-14T06:04:35.906Z,18.47
2018-11-14T06:07:09.421Z,20.23
2018-11-14T06:09:38.536Z,24.13
2018-11-14T06:12:07.116Z,20.33
2018-11-14T06:14:38.514Z,20.80
2018-11-14T06:17:09.030Z,42.87
2018-11-14T06:19:37.940Z,25.73
2018-11-14T06:22:06.474Z,28.10
2018-11-14T06:24:37.435Z,27.03
2018-11-14T06:29:50.854Z,32.07
2018-11-14T06:32:19.340Z,19.70
2018-11-14T06:34:47.771Z,18.07
2018-11-14T06:37:16.965Z,16.83
2018-11-14T06:39:47.046Z,25.73
2018-11-14T06:42:15.517Z,18.53
2018-11-14T06:44:46.024Z,18.60
2018-11-14T06:47:21.996Z,19.87
2018-11-14T06:49:51.861Z,18.03
2018-11-14T06:52:25.822Z,22.07
2018-11-14T06:54:58.028Z,23.17
2018-11-14T06:57:28.435Z,18.93
2018-11-14T07:00:01.480Z,16.43
2018-11-14T07:02:29.908Z,15.37
2018-11-14T07:05:07.630Z,18.60
2018-11-14T07:07:35.987Z,21.67
2018-11-14T07:10:04.825Z,23.73
2018-11-14T07:12:36.937Z,19.17
2018-11-14T07:15:08.640Z,22.37
2018-11-14T07:17:40.983Z,21.20
2018-11-14T07:20:15.517Z,22.23
2018-11-14T07:22:45.197Z,21.80
2018-11-14T07:25:15.494Z,21.07
2018-11-14T07:27:47.417Z,18.07
2018-11-14T07:30:22.645Z,17.10
2018-11-14T07:32:52.993Z,18.90
2018-11-14T07:35:22.809Z,23.97
2018-11-14T07:39:05.852Z,23.17
2018-11-14T07:41:38.993Z,17.10
2018-11-14T07:44:07.665Z,22.27
2018-11-14T07:46:37.720Z,19.70
2018-11-14T07:49:08.506Z,18.17
2018-11-14T07:51:36.892Z,19.33
2018-11-14T07:54:05.520Z,20.93
2018-11-14T07:56:34.079Z,18.00
2018-11-14T07:59:02.788Z,19.50
2018-11-14T08:01:31.505Z,19.87
2018-11-14T08:04:01.177Z,21.47
2018-11-14T08:06:30.366Z,20.43
2018-11-14T08:08:58.738Z,25.57
2018-11-14T08:11:27.184Z,25.40
2018-11-14T08:13:56.182Z,23.10
2018-11-14T08:16:24.881Z,17.13
2018-11-14T08:18:57.167Z,18.43
2018-11-14T08:21:26.016Z,18.20
2018-11-14T08:23:55.262Z,21.40
2018-11-14T08:26:24.155Z,21.17
2018-11-14T08:28:53.501Z,16.13
2018-11-14T08:31:22.517Z,20.93
2018-11-14T08:33:51.089Z,24.47
2018-11-14T08:36:20.195Z,20.73
2018-11-14T08:38:49.442Z,18.40
2018-11-14T08:41:18.694Z,27.70
2018-11-14T08:46:30.832Z,17.07
2018-11-14T08:49:00.137Z,21.73
2018-11-14T08:51:28.484Z,22.97
2018-11-14T08:53:56.959Z,24.13
2018-11-14T08:56:25.630Z,19.13
2018-11-14T08:58:54.045Z,20.23
2018-11-14T09:01:22.818Z,16.03
2018-11-14T09:03:51.542Z,18.37
2018-11-14T09:06:19.966Z,25.40
2018-11-14T09:08:48.500Z,18.97
2018-11-14T09:11:17.064Z,19.20
2018-11-14T09:13:45.473Z,21.57
2018-11-14T09:16:14.085Z,21.43
2018-11-14T09:18:42.588Z,21.63
2018-11-14T09:21:10.977Z,18.97
2018-11-14T09:23:39.647Z,21.83
2018-11-14T09:26:08.168Z,19.50
2018-11-14T09:28:36.681Z,17.43
2018-11-14T09:31:05.427Z,17.50
2018-11-14T09:33:33.825Z,22.70
2018-11-14T09:36:03.038Z,17.50
2018-11-14T09:38:31.580Z,17.10
2018-11-14T09:40:59.966Z,19.43
2018-11-14T09:43:28.381Z,14.97
2018-11-14T09:45:56.967Z,20.23
2018-11-14T09:48:25.511Z,17.97
2018-11-14T09:50:54.038Z,16.40
2018-11-14T09:53:22.587Z,20.13
2018-11-14T09:55:51.164Z,15.57
2018-11-14T09:58:19.611Z,18.70
2018-11-14T10:00:48.297Z,22.37
2018-11-14T10:03:17.901Z,18.20
2018-11-14T10:05:46.537Z,19.47
2018-11-14T10:08:14.918Z,15.73
2018-11-14T10:10:44.584Z,20.77
2018-11-14T10:13:12.999Z,21.20
2018-11-14T10:15:41.620Z,15.93
2018-11-14T10:18:09.999Z,17.83
2018-11-14T10:20:38.312Z,14.93
2018-11-14T10:23:07.213Z,21.20
2018-11-14T10:25:35.532Z,15.33
2018-11-14T10:28:04.000Z,20.23
2018-11-14T10:30:32.355Z,16.23
2018-11-14T10:33:00.657Z,19.10
2018-11-14T10:35:29.123Z,19.63
2018-11-14T10:37:58.289Z,16.63
2018-11-14T10:40:27.840Z,20.07
2018-11-14T10:42:56.310Z,17.27
2018-11-14T10:45:25.585Z,17.70
2018-11-14T10:47:53.864Z,21.53
2018-11-14T10:50:24.397Z,17.03
2018-11-14T10:52:52.732Z,13.33
2018-11-14T10:55:21.554Z,15.23
2018-11-14T10:57:50.016Z,16.07
2018-11-14T11:00:26.834Z,13.63
2018-11-14T11:03:00.521Z,16.10
2018-11-14T11:05:34.165Z,10.80
2018-11-14T11:08:08.128Z,19.27
2018-11-14T11:10:41.776Z,16.33
2018-11-14T11:13:15.232Z,13.03
2018-11-14T11:15:49.236Z,13.10
2018-11-14T11:18:18.473Z,12.83
2018-11-14T11:20:47.096Z,12.37
2018-11-14T11:23:15.517Z,12.10
2018-11-14T11:25:44.206Z,12.80
2018-11-14T11:28:13.004Z,11.27
2018-11-14T11:30:41.438Z,18.00
2018-11-14T11:33:09.829Z,15.13
2018-11-14T11:35:38.511Z,14.53
2018-11-14T11:38:08.769Z,13.50
2018-11-14T11:40:38.135Z,12.77
2018-11-14T11:43:07.014Z,16.60
2018-11-14T11:45:35.776Z,12.90
2018-11-14T11:48:04.193Z,14.10
2018-11-14T11:50:33.219Z,15.47
2018-11-14T11:53:01.963Z,12.03
2018-11-14T11:55:30.425Z,11.43
2018-11-14T11:57:58.733Z,16.03
2018-11-14T12:00:27.182Z,14.47
2018-11-14T12:02:55.554Z,14.23
2018-11-14T12:05:24.081Z,15.97
2018-11-14T12:07:52.697Z,15.73
2018-11-14T12:10:21.177Z,11.43
2018-11-14T12:12:49.615Z,12.63
2018-11-14T12:15:17.956Z,12.40
2018-11-14T12:17:46.407Z,11.70
2018-11-14T12:20:16.148Z,9.87
2018-11-14T12:22:44.788Z,11.17
2018-11-14T12:25:14.956Z,11.73
2018-11-14T12:27:43.511Z,14.40
2018-11-14T12:30:14.180Z,13.63
2018-11-14T12:32:42.567Z,11.53
2018-11-14T12:35:12.627Z,10.20
2018-11-14T12:37:41.038Z,10.83
2018-11-14T12:40:10.309Z,8.27
2018-11-14T12:42:38.932Z,12.47
2018-11-14T12:45:08.682Z,11.17
2018-11-14T12:47:37.060Z,9.63
2018-11-14T12:50:06.457Z,11.20
2018-11-14T12:52:35.332Z,10.77
2018-11-14T12:55:03.903Z,9.30
2018-11-14T12:57:32.757Z,13.27
2018-11-14T13:00:02.341Z,11.60
2018-11-14T13:02:31.515Z,10.50
2018-11-14T13:04:59.869Z,15.07
2018-11-14T13:07:28.217Z,10.93
2018-11-14T13:09:56.699Z,10.33
2018-11-14T13:12:25.121Z,11.47
2018-11-14T13:14:53.483Z,11.33
2018-11-14T13:17:21.860Z,9.03
2018-11-14T13:19:50.205Z,12.13
2018-11-14T13:22:19.308Z,12.93
2018-11-14T13:24:47.740Z,11.97
2018-11-14T13:27:16.090Z,10.83
2018-11-14T13:29:44.421Z,10.50
2018-11-14T13:32:12.826Z,12.97
2018-11-14T13:34:41.194Z,13.00
2018-11-14T13:37:09.593Z,13.40
2018-11-14T13:39:38.582Z,11.28
2018-11-14T13:42:06.969Z,9.20
2018-11-14T13:44:35.277Z,10.17
2018-11-14T13:47:04.121Z,10.07
2018-11-14T13:49:32.759Z,6.97
2018-11-14T13:52:00.859Z,8.67
2018-11-14T13:54:29.264Z,11.80
2018-11-14T13:56:57.602Z,8.37
2018-11-14T13:59:25.861Z,7.83
2018-11-14T14:01:54.191Z,5.92
2018-11-14T14:04:22.493Z,9.00
2018-11-14T14:07:00.543Z,9.43
2018-11-14T14:09:28.944Z,12.35
2018-11-14T14:11:57.244Z,8.40
2018-11-14T14:14:26.449Z,10.63
2018-11-14T14:16:54.721Z,8.53
2018-11-14T14:19:23.713Z,6.77
2018-11-14T14:21:52.153Z,8.88
2018-11-14T14:24:20.584Z,10.43
2018-11-14T14:26:48.885Z,11.03
2018-11-14T14:29:17.247Z,11.23
2018-11-14T14:31:45.696Z,11.07
2018-11-14T14:34:14.024Z,10.40
2018-11-14T14:36:42.361Z,10.90
2018-11-14T14:39:12.225Z,8.13
2018-11-14T14:41:40.604Z,5.63
2018-11-14T14:44:08.964Z,7.90
2018-11-14T14:46:37.881Z,9.47
2018-11-14T14:49:06.917Z,6.67
2018-11-14T14:51:35.272Z,9.93
2018-11-14T14:54:03.718Z,8.60
2018-11-14T14:56:32.140Z,6.70
2018-11-14T14:59:00.426Z,6.67
2018-11-14T15:01:28.924Z,8.50
2018-11-14T15:03:57.421Z,8.53
2018-11-14T15:06:25.744Z,7.03
2018-11-14T15:08:54.022Z,10.63
2018-11-14T15:11:22.832Z,5.63
2018-11-14T15:13:51.257Z,8.60
2018-11-14T15:16:19.607Z,10.90
2018-11-14T15:18:48.044Z,11.30
2018-11-14T15:21:16.525Z,12.40
2018-11-14T15:23:44.848Z,11.93
2018-11-14T15:26:13.207Z,13.07
2018-11-14T15:28:41.657Z,11.10
2018-11-14T15:31:09.907Z,10.30
2018-11-14T15:33:38.315Z,9.57
2018-11-14T15:36:07.964Z,9.87
2018-11-14T15:38:36.206Z,12.43
2018-11-14T15:41:05.938Z,12.43
2018-11-14T15:43:35.072Z,14.10
2018-11-14T15:46:03.448Z,11.87
2018-11-14T15:48:31.812Z,12.60
2018-11-14T15:51:00.137Z,12.40
2018-11-14T15:53:29.327Z,8.53
2018-11-14T15:55:58.529Z,9.37
2018-11-14T15:58:27.446Z,11.47
2018-11-14T16:00:55.741Z,10.23
2018-11-14T16:03:24.985Z,10.20
2018-11-14T16:05:54.693Z,12.37
2018-11-14T16:08:23.013Z,12.03
2018-11-14T16:10:51.646Z,10.67
2018-11-14T16:13:33.775Z,16.20
2018-11-14T16:16:03.122Z,10.70
2018-11-14T16:18:32.237Z,10.63
2018-11-14T16:21:00.713Z,14.03
2018-11-14T16:23:29.100Z,9.97
2018-11-14T16:25:57.557Z,14.53
2018-11-14T16:28:25.888Z,11.80
2018-11-14T16:30:54.277Z,12.13
2018-11-14T16:33:22.760Z,11.80
2018-11-14T16:35:51.270Z,11.57
2018-11-14T16:38:19.662Z,14.47
2018-11-14T16:40:48.076Z,9.90
2018-11-14T16:43:16.529Z,13.53
2018-11-14T16:45:45.140Z,11.83
2018-11-14T16:48:15.760Z,10.57
2018-11-14T16:50:46.511Z,13.33
2018-11-14T16:53:16.204Z,16.23
2018-11-14T16:55:45.639Z,13.87
2018-11-14T16:58:13.961Z,14.97
2018-11-14T17:00:42.837Z,7.07
2018-11-14T17:03:11.242Z,12.50
2018-11-14T17:05:39.835Z,16.90
2018-11-14T17:08:08.248Z,12.37
2018-11-14T17:10:36.516Z,14.63
2018-11-14T17:13:05.048Z,17.93
2018-11-14T17:15:33.561Z,17.77
2018-11-14T17:18:02.316Z,18.73
2018-11-14T17:20:31.230Z,16.20
2018-11-14T17:22:59.670Z,16.70
2018-11-14T17:25:28.261Z,20.53
2018-11-14T17:27:56.747Z,13.30
2018-11-14T17:30:26.377Z,16.37
2018-11-14T17:32:55.248Z,14.00
2018-11-14T17:35:23.677Z,16.53
2018-11-14T17:37:52.002Z,15.90
2018-11-14T17:40:23.823Z,11.63
2018-11-14T17:42:52.935Z,14.97
2018-11-14T17:45:23.783Z,14.53
2018-11-14T17:47:52.805Z,13.70
2018-11-14T17:50:25.582Z,17.80
2018-11-14T17:52:55.110Z,13.60
2018-11-14T17:55:24.272Z,11.17
2018-11-14T17:57:52.732Z,12.77
2018-11-14T18:00:30.878Z,11.57
2018-11-14T18:03:00.134Z,11.17
2018-11-14T18:05:29.668Z,10.50
2018-11-14T18:08:01.379Z,12.33
2018-11-14T18:10:30.807Z,15.00
2018-11-14T18:13:00.573Z,12.73
2018-11-14T18:15:29.281Z,11.03
2018-11-14T18:18:00.652Z,16.17
2018-11-14T18:20:30.561Z,15.87
2018-11-14T18:23:02.217Z,16.77
2018-11-14T18:25:30.535Z,17.00
2018-11-14T18:27:58.905Z,16.30
2018-11-14T18:30:28.641Z,13.90
2018-11-14T18:32:58.027Z,14.60
2018-11-14T18:35:27.033Z,18.70
2018-11-14T18:37:56.354Z,12.23
2018-11-14T18:40:26.168Z,17.50
2018-11-14T18:42:54.474Z,16.03
2018-11-14T18:45:25.800Z,13.43
2018-11-14T18:47:55.057Z,17.37
2018-11-14T18:50:24.520Z,13.17
2018-11-14T18:52:53.413Z,13.20
2018-11-14T18:55:23.089Z,15.97
2018-11-14T18:57:51.929Z,19.00
2018-11-14T19:00:22.037Z,11.50
2018-11-14T19:02:50.696Z,13.07
2018-11-14T19:05:21.068Z,11.27
2018-11-14T19:07:49.919Z,12.77
2018-11-14T19:10:20.167Z,12.80
2018-11-14T19:12:49.333Z,11.73
2018-11-14T19:15:26.012Z,11.50
2018-11-14T19:17:54.638Z,16.80
2018-11-14T19:20:25.128Z,12.83
2018-11-14T19:22:54.592Z,11.30
2018-11-14T19:25:26.193Z,11.60
2018-11-14T19:27:54.789Z,12.27
2018-11-14T19:30:26.488Z,15.10
2018-11-14T19:32:56.035Z,14.30
2018-11-14T19:35:25.899Z,11.50
2018-11-14T19:37:56.740Z,14.83
2018-11-14T19:40:28.550Z,15.37
2018-11-14T19:42:58.891Z,14.53
2018-11-14T19:45:30.859Z,17.40
2018-11-14T19:47:59.591Z,16.27
2018-11-14T19:50:28.004Z,13.60
2018-11-14T19:52:57.235Z,13.00
2018-11-14T19:55:26.835Z,13.10
2018-11-14T19:57:56.508Z,15.13
2018-11-14T20:00:33.485Z,21.50
2018-11-14T20:03:02.179Z,16.27
2018-11-14T20:05:31.592Z,13.20
2018-11-14T20:08:00.146Z,16.63
2018-11-14T20:10:30.399Z,23.50
2018-11-14T20:12:59.412Z,17.60
2018-11-14T20:15:29.553Z,15.33
2018-11-14T20:17:59.422Z,17.17
2018-11-14T20:20:29.505Z,16.97
2018-11-14T20:22:58.042Z,18.80
2018-11-14T20:25:26.756Z,13.33
2018-11-14T20:27:55.236Z,20.20
2018-11-14T20:30:29.159Z,18.10
2018-11-14T20:33:00.397Z,16.40
2018-11-14T20:35:29.604Z,19.00
2018-11-14T20:37:58.136Z,16.40
2018-11-14T20:40:28.449Z,16.00
2018-11-14T20:42:57.644Z,16.07
2018-11-14T20:45:34.688Z,15.80
2018-11-14T20:48:03.158Z,17.37
2018-11-14T20:50:31.850Z,17.33
2018-11-14T20:53:02.812Z,16.37
2018-11-14T20:56:34.350Z,17.83
2018-11-14T20:59:02.713Z,14.97
2018-11-14T21:01:31.155Z,16.73
2018-11-14T21:04:00.392Z,16.50
2018-11-14T21:06:30.629Z,16.93
2018-11-14T21:08:59.338Z,18.47
2018-11-14T21:11:28.272Z,16.27
2018-11-14T21:13:56.981Z,16.73
2018-11-14T21:16:25.366Z,17.77
2018-11-14T21:18:58.477Z,19.37
2018-11-14T21:21:30.148Z,20.00
2018-11-14T21:23:59.517Z,14.37
2018-11-14T21:26:27.865Z,21.20
2018-11-14T21:28:58.431Z,17.53
2018-11-14T21:31:27.963Z,15.83
2018-11-14T21:33:56.432Z,16.47
2018-11-14T21:36:25.003Z,17.10
2018-11-14T21:38:53.388Z,17.83
2018-11-14T21:41:21.924Z,18.20
2018-11-14T21:43:50.688Z,19.13
2018-11-14T21:46:22.117Z,18.77
2018-11-14T21:48:54.413Z,16.93
2018-11-14T21:51:23.322Z,19.03
2018-11-14T21:53:51.949Z,17.27
2018-11-14T21:56:21.337Z,20.00
2018-11-14T21:58:50.625Z,18.53
2018-11-14T22:01:28.910Z,17.87
2018-11-14T22:03:58.495Z,18.17
2018-11-14T22:06:27.424Z,17.07
2018-11-14T22:09:00.207Z,17.10
2018-11-14T22:11:29.726Z,19.47
2018-11-14T22:14:02.414Z,16.53
2018-11-14T22:16:31.484Z,18.03
2018-11-14T22:19:02.745Z,21.27
2018-11-14T22:21:36.805Z,19.97
2018-11-14T22:24:05.541Z,18.00
2018-11-14T22:26:39.000Z,21.07
2018-11-14T22:29:08.340Z,19.20
2018-11-14T22:34:24.545Z,19.53
2018-11-14T22:39:46.233Z,21.17
2018-11-14T22:42:15.123Z,18.93
2018-11-14T22:44:44.766Z,23.47
2018-11-14T22:47:21.865Z,24.90
2018-11-14T22:52:46.437Z,22.33
2018-11-14T22:55:18.633Z,19.53
2018-11-14T22:57:56.023Z,27.13
2018-11-14T23:09:22.101Z,22.90
2018-11-14T23:14:37.787Z,20.63
2018-11-14T23:17:06.796Z,22.53
2018-11-14T23:19:38.963Z,26.27
2018-11-14T23:22:09.939Z,19.03
2018-11-14T23:24:49.413Z,25.53
2018-11-14T23:27:18.914Z,26.73
2018-11-14T23:29:57.889Z,22.13
2018-11-14T23:32:26.374Z,19.43
2018-11-14T23:35:04.266Z,24.80
2018-11-14T23:37:32.800Z,24.13
2018-11-14T23:40:01.334Z,20.63
2018-11-14T23:42:30.086Z,19.30
2018-11-14T23:47:38.465Z,18.87
2018-11-14T23:51:06.814Z,23.27
